createdAt,value
2022-12-11T00:00:52.906Z,20.33
2022-12-11T00:05:54.644Z,21.37
2022-12-11T00:10:56.535Z,24.77
2022-12-11T00:15:59.311Z,23.67
2022-12-11T00:21:07.619Z,23.63
2022-12-11T00:26:12.927Z,24.23
2022-12-11T00:31:17.140Z,23.83
2022-12-11T00:36:22.147Z,20.77
2022-12-11T00:41:24.372Z,20.33
2022-12-11T00:46:26.347Z,22.50
2022-12-11T00:51:28.300Z,28.53
2022-12-11T00:56:30.839Z,22.43
2022-12-11T01:01:32.863Z,26.43
2022-12-11T01:06:34.858Z,24.87
2022-12-11T01:11:36.701Z,28.23
2022-12-11T01:16:38.633Z,25.47
2022-12-11T01:21:41.103Z,22.60
2022-12-11T01:26:42.853Z,22.53
2022-12-11T01:31:44.786Z,22.10
2022-12-11T01:36:46.711Z,22.87
2022-12-11T01:41:48.648Z,24.07
2022-12-11T01:46:51.487Z,21.00
2022-12-11T01:51:58.542Z,22.60
2022-12-11T01:57:05.140Z,19.60
2022-12-11T02:02:15.140Z,21.53
2022-12-11T02:07:17.351Z,20.53
2022-12-11T02:12:22.394Z,20.40
2022-12-11T02:18:00.444Z,22.90
2022-12-11T02:23:39.342Z,24.77
2022-12-11T02:28:51.739Z,19.73
2022-12-11T02:34:15.910Z,26.10
2022-12-11T02:39:18.903Z,24.53
2022-12-11T02:44:25.294Z,25.70
2022-12-11T02:49:28.135Z,24.07
2022-12-11T02:54:34.945Z,24.13
2022-12-11T02:59:43.687Z,27.27
2022-12-11T03:04:46.671Z,23.30
2022-12-11T03:09:49.892Z,20.37
2022-12-11T03:14:51.914Z,25.17
2022-12-11T03:20:17.931Z,25.27
2022-12-11T03:25:27.410Z,26.13
2022-12-11T03:30:32.389Z,27.43
2022-12-11T03:35:38.978Z,24.20
2022-12-11T03:40:44.349Z,29.23
2022-12-11T03:45:49.552Z,28.83
2022-12-11T03:50:52.362Z,28.13
2022-12-11T03:55:58.332Z,28.77
2022-12-11T04:01:00.165Z,22.53
2022-12-11T04:06:02.077Z,27.00
2022-12-11T04:11:23.582Z,32.00
2022-12-11T04:16:25.313Z,29.00
2022-12-11T04:21:45.843Z,33.60
2022-12-11T04:26:47.864Z,32.00
2022-12-11T04:31:50.664Z,33.67
2022-12-11T04:36:52.641Z,32.17
2022-12-11T04:41:54.414Z,36.73
2022-12-11T04:46:56.306Z,32.67
2022-12-11T04:51:58.198Z,37.30
2022-12-11T04:57:00.139Z,33.53
2022-12-11T05:02:01.919Z,35.63
2022-12-11T05:07:03.674Z,32.27
2022-12-11T05:12:05.564Z,30.07
2022-12-11T05:17:07.573Z,24.90
2022-12-11T05:22:09.464Z,33.80
2022-12-11T05:27:11.930Z,36.87
2022-12-11T05:32:13.678Z,32.63
2022-12-11T05:37:15.418Z,30.00
2022-12-11T05:42:17.304Z,29.97
2022-12-11T05:47:20.373Z,30.57
2022-12-11T05:52:22.199Z,30.53
2022-12-11T05:57:23.974Z,30.67
2022-12-11T06:02:25.818Z,30.23
2022-12-11T06:07:27.874Z,35.97
2022-12-11T06:12:31.031Z,34.07
2022-12-11T06:17:34.222Z,34.40
2022-12-11T06:22:36.275Z,35.30
2022-12-11T06:27:38.331Z,30.37
2022-12-11T06:32:40.272Z,25.80
2022-12-11T06:37:42.267Z,33.30
2022-12-11T06:42:44.035Z,27.70
2022-12-11T06:47:45.876Z,31.90
2022-12-11T06:52:47.597Z,26.80
2022-12-11T06:57:49.707Z,30.37
2022-12-11T07:02:51.667Z,31.30
2022-12-11T07:07:54.915Z,36.07
2022-12-11T07:12:56.929Z,29.30
2022-12-11T07:17:58.872Z,27.40
2022-12-11T07:23:00.835Z,28.13
2022-12-11T07:28:02.564Z,33.80
2022-12-11T07:33:04.361Z,31.20
2022-12-11T07:38:06.361Z,28.33
2022-12-11T07:43:08.100Z,29.67
2022-12-11T07:48:09.992Z,26.57
2022-12-11T07:53:11.745Z,31.40
2022-12-11T07:58:13.479Z,33.90
2022-12-11T08:03:15.233Z,39.57
2022-12-11T08:08:17.494Z,30.77
2022-12-11T08:13:19.335Z,30.97
2022-12-11T08:18:21.116Z,27.93
2022-12-11T08:23:22.987Z,29.70
2022-12-11T08:28:25.414Z,25.87
2022-12-11T08:33:29.000Z,28.73
2022-12-11T08:38:31.355Z,29.20
2022-12-11T08:43:33.942Z,26.53
2022-12-11T08:48:37.515Z,28.63
2022-12-11T08:53:40.871Z,29.77
2022-12-11T08:58:43.707Z,30.77
2022-12-11T09:03:45.509Z,30.07
2022-12-11T09:08:52.543Z,33.10
2022-12-11T09:13:55.733Z,32.83
2022-12-11T09:18:59.556Z,27.17
2022-12-11T09:24:01.927Z,26.43
2022-12-11T09:29:05.625Z,24.83
2022-12-11T09:34:12.115Z,29.03
2022-12-11T09:39:16.228Z,25.83
2022-12-11T09:44:39.498Z,27.17
2022-12-11T09:49:44.912Z,26.00
2022-12-11T09:54:55.974Z,28.17
2022-12-11T10:00:14.177Z,25.07
2022-12-11T10:05:41.662Z,24.33
2022-12-11T10:10:48.375Z,25.80
2022-12-11T10:16:09.358Z,24.90
2022-12-11T10:21:12.993Z,24.53
2022-12-11T10:26:21.177Z,21.57
2022-12-11T10:31:29.050Z,26.53
2022-12-11T10:36:39.894Z,26.47
2022-12-11T10:41:47.172Z,24.10
2022-12-11T10:47:21.107Z,22.53
2022-12-11T10:52:25.011Z,23.27
2022-12-11T10:57:31.126Z,28.57
2022-12-11T11:02:45.935Z,25.00
2022-12-11T11:07:47.950Z,27.50
2022-12-11T11:12:50.453Z,27.23
2022-12-11T11:17:56.132Z,25.70
2022-12-11T11:23:01.551Z,27.83
2022-12-11T11:28:09.338Z,26.00
2022-12-11T11:33:18.765Z,30.50
2022-12-11T11:38:41.473Z,25.70
2022-12-11T11:43:48.092Z,26.30
2022-12-11T11:48:53.070Z,26.23
2022-12-11T11:53:59.966Z,28.23
2022-12-11T11:59:26.755Z,25.77
2022-12-11T12:04:33.859Z,23.10
2022-12-11T12:10:11.117Z,24.43
2022-12-11T12:15:31.423Z,25.57
2022-12-11T12:21:38.938Z,24.00
2022-12-11T12:26:49.371Z,19.17
2022-12-11T12:32:04.760Z,24.13
2022-12-11T12:37:25.164Z,20.57
2022-12-11T12:42:40.220Z,19.13
2022-12-11T12:47:53.232Z,21.07
2022-12-11T12:52:56.895Z,27.33
2022-12-11T12:58:05.266Z,20.30
2022-12-11T13:03:17.134Z,22.93
2022-12-11T13:08:25.453Z,21.40
2022-12-11T13:14:01.902Z,24.23
2022-12-11T13:19:04.199Z,22.20
2022-12-11T13:24:21.257Z,22.60
2022-12-11T13:29:30.485Z,22.13
2022-12-11T13:34:35.048Z,22.97
2022-12-11T13:39:39.699Z,23.50
2022-12-11T13:44:42.569Z,20.63
2022-12-11T13:49:48.875Z,26.97
2022-12-11T13:54:53.904Z,21.07
2022-12-11T13:59:57.851Z,22.03
2022-12-11T14:05:03.648Z,23.63
2022-12-11T14:10:14.300Z,22.57
2022-12-11T14:15:16.377Z,23.47
2022-12-11T14:20:30.121Z,22.53
2022-12-11T14:25:32.011Z,23.20
2022-12-11T14:30:36.523Z,26.27
2022-12-11T14:35:42.405Z,25.23
2022-12-11T14:40:48.814Z,28.13
2022-12-11T14:45:57.838Z,26.13
2022-12-11T14:51:03.652Z,29.13
2022-12-11T14:56:07.918Z,25.70
2022-12-11T15:01:31.065Z,27.60
2022-12-11T15:06:44.246Z,29.33
2022-12-11T15:11:47.089Z,26.77
2022-12-11T15:16:50.402Z,26.77
2022-12-11T15:21:53.121Z,33.27
2022-12-11T15:26:58.561Z,36.23
2022-12-11T15:32:18.485Z,32.47
2022-12-11T15:37:26.723Z,31.37
2022-12-11T15:42:35.755Z,27.77
2022-12-11T15:47:37.533Z,30.60
2022-12-11T15:52:39.472Z,35.50
2022-12-11T15:57:54.051Z,38.53
2022-12-11T16:02:57.063Z,38.10
2022-12-11T16:07:59.542Z,30.80
2022-12-11T16:13:02.675Z,32.67
2022-12-11T16:18:10.791Z,37.30
2022-12-11T16:23:14.651Z,27.60
2022-12-11T16:28:20.648Z,32.97
2022-12-11T16:33:22.367Z,31.00
2022-12-11T16:38:24.143Z,28.70
2022-12-11T16:43:26.573Z,24.43
2022-12-11T16:48:28.464Z,25.80
2022-12-11T16:53:30.794Z,26.33
2022-12-11T16:58:32.919Z,26.73
2022-12-11T17:03:34.636Z,35.30
2022-12-11T17:08:37.325Z,39.77
2022-12-11T17:13:39.414Z,34.77
2022-12-11T17:18:41.830Z,34.60
2022-12-11T17:23:44.453Z,26.10
2022-12-11T17:28:46.491Z,35.37
2022-12-11T17:33:49.569Z,36.27
2022-12-11T17:38:51.369Z,35.47
2022-12-11T17:43:55.840Z,35.73
2022-12-11T17:48:59.995Z,28.83
2022-12-11T17:54:01.947Z,30.40
2022-12-11T17:59:04.575Z,34.17
2022-12-11T18:04:06.501Z,32.27
2022-12-11T18:09:09.103Z,23.93
2022-12-11T18:14:16.772Z,21.43
2022-12-11T18:19:20.068Z,24.30
2022-12-11T18:24:22.645Z,25.53
2022-12-11T18:29:25.284Z,19.10
2022-12-11T18:34:27.271Z,22.03
2022-12-11T18:39:29.001Z,22.03
2022-12-11T18:44:30.963Z,21.70
2022-12-11T18:49:32.938Z,23.87
2022-12-11T18:54:35.487Z,23.90
2022-12-11T18:59:37.803Z,22.43
2022-12-11T19:04:39.741Z,21.83
2022-12-11T19:09:47.547Z,25.80
2022-12-11T19:14:49.962Z,23.53
2022-12-11T19:19:51.855Z,29.47
2022-12-11T19:24:53.792Z,26.00
2022-12-11T19:29:55.609Z,31.70
2022-12-11T19:34:57.490Z,29.80
2022-12-11T19:39:59.339Z,30.57
2022-12-11T19:45:02.694Z,25.73
2022-12-11T19:50:05.200Z,26.10
2022-12-11T19:55:07.783Z,26.63
2022-12-11T20:00:10.158Z,23.60
2022-12-11T20:05:14.319Z,25.53
2022-12-11T20:10:16.532Z,25.10
2022-12-11T20:15:20.422Z,21.17
2022-12-11T20:20:23.758Z,28.77
2022-12-11T20:25:26.850Z,29.60
2022-12-11T20:30:28.778Z,26.80
2022-12-11T20:35:33.889Z,25.83
2022-12-11T20:40:35.760Z,26.93
2022-12-11T20:45:37.682Z,28.60
2022-12-11T20:50:39.750Z,26.07
2022-12-11T20:55:42.815Z,25.57
2022-12-11T21:00:45.055Z,30.37
2022-12-11T21:05:46.892Z,20.30
2022-12-11T21:10:48.810Z,23.57
2022-12-11T21:15:52.603Z,23.40
2022-12-11T21:20:56.803Z,23.60
2022-12-11T21:25:59.721Z,27.63
2022-12-11T21:31:04.123Z,20.37
2022-12-11T21:36:07.176Z,22.00
2022-12-11T21:41:09.234Z,21.03
2022-12-11T21:46:17.208Z,21.17
2022-12-11T21:51:23.684Z,26.23
2022-12-11T21:56:28.123Z,18.53
2022-12-11T22:01:33.499Z,32.13
2022-12-11T22:06:35.698Z,26.57
2022-12-11T22:11:37.507Z,26.20
2022-12-11T22:16:39.560Z,20.53
2022-12-11T22:21:41.683Z,24.03
2022-12-11T22:26:43.927Z,25.40
2022-12-11T22:31:45.737Z,27.00
2022-12-11T22:36:47.683Z,21.17
2022-12-11T22:41:49.488Z,24.97
2022-12-11T22:46:51.401Z,21.40
2022-12-11T22:51:53.199Z,23.93
2022-12-11T22:56:54.998Z,21.73
2022-12-11T23:01:56.814Z,29.83
2022-12-11T23:06:59.246Z,24.07
2022-12-11T23:12:01.593Z,27.43
2022-12-11T23:17:03.589Z,23.77
2022-12-11T23:22:05.439Z,22.10
2022-12-11T23:27:07.407Z,20.80
2022-12-11T23:32:09.307Z,21.87
2022-12-11T23:37:11.240Z,24.43
2022-12-11T23:42:13.210Z,24.07
2022-12-11T23:47:15.026Z,26.10
2022-12-11T23:52:16.938Z,23.60
2022-12-11T23:57:18.675Z,23.53
